createdAt,value
2022-11-29T00:01:31.512Z,44.83
2022-11-29T00:03:59.458Z,45.13
2022-11-29T00:06:29.278Z,42.67
2022-11-29T00:08:59.160Z,46.10
2022-11-29T00:11:48.057Z,43.28
2022-11-29T00:14:17.725Z,44.05
2022-11-29T00:16:44.912Z,40.38
2022-11-29T00:19:13.294Z,41.88
2022-11-29T00:21:40.322Z,39.70
2022-11-29T00:24:07.577Z,37.50
2022-11-29T00:26:34.710Z,39.15
2022-11-29T00:29:01.969Z,40.90
2022-11-29T00:31:31.046Z,38.47
2022-11-29T00:33:59.623Z,39.88
2022-11-29T00:36:27.328Z,38.60
2022-11-29T00:38:54.408Z,41.75
2022-11-29T00:41:21.557Z,40.80
2022-11-29T00:43:48.767Z,40.75
2022-11-29T00:46:15.854Z,39.60
2022-11-29T00:48:42.881Z,40.88
2022-11-29T00:51:10.127Z,43.53
2022-11-29T00:53:37.940Z,42.90
2022-11-29T00:56:06.013Z,42.50
2022-11-29T00:58:33.690Z,41.67
2022-11-29T01:01:00.767Z,42.83
2022-11-29T01:03:27.957Z,43.67
2022-11-29T01:06:05.244Z,41.88
2022-11-29T01:08:32.245Z,45.00
2022-11-29T01:11:17.161Z,43.75
2022-11-29T01:13:44.750Z,45.80
2022-11-29T01:16:11.824Z,43.70
2022-11-29T01:18:39.232Z,41.80
2022-11-29T01:21:09.525Z,42.58
2022-11-29T01:23:37.453Z,41.85
2022-11-29T01:26:10.896Z,42.78
2022-11-29T01:28:39.368Z,43.40
2022-11-29T01:31:08.291Z,45.53
2022-11-29T01:33:36.200Z,43.55
2022-11-29T01:36:04.535Z,50.08
2022-11-29T01:38:32.109Z,45.15
2022-11-29T01:41:02.790Z,46.13
2022-11-29T01:43:30.224Z,42.53
2022-11-29T01:45:57.370Z,46.45
2022-11-29T01:48:28.220Z,43.70
2022-11-29T01:51:00.277Z,44.35
2022-11-29T01:53:28.426Z,42.80
2022-11-29T01:56:00.830Z,44.70
2022-11-29T01:58:29.183Z,44.55
2022-11-29T02:00:58.030Z,45.25
2022-11-29T02:03:25.721Z,45.17
2022-11-29T02:05:53.940Z,46.08
2022-11-29T02:08:27.332Z,46.05
2022-11-29T02:11:15.505Z,43.15
2022-11-29T02:14:24.759Z,45.15
2022-11-29T02:16:57.854Z,43.75
2022-11-29T02:19:45.758Z,47.60
2022-11-29T02:22:27.353Z,50.92
2022-11-29T02:27:51.970Z,43.25
2022-11-29T02:30:42.761Z,43.75
2022-11-29T02:33:35.954Z,43.83
2022-11-29T02:37:11.703Z,41.63
2022-11-29T02:40:20.169Z,44.78
2022-11-29T02:43:10.650Z,45.90
2022-11-29T02:46:01.404Z,42.53
2022-11-29T02:48:43.448Z,40.37
2022-11-29T02:51:20.943Z,40.63
2022-11-29T02:54:01.236Z,41.25
2022-11-29T02:56:40.131Z,39.55
2022-11-29T02:59:07.064Z,42.05
2022-11-29T03:02:03.262Z,42.83
2022-11-29T03:04:36.272Z,42.80
2022-11-29T03:07:13.831Z,44.88
2022-11-29T03:09:54.699Z,41.33
2022-11-29T03:12:29.312Z,39.92
2022-11-29T03:15:05.124Z,41.38
2022-11-29T03:17:48.966Z,39.58
2022-11-29T03:20:28.330Z,38.35
2022-11-29T03:23:36.459Z,38.50
2022-11-29T03:26:18.974Z,39.50
2022-11-29T03:28:56.168Z,38.95
2022-11-29T03:31:55.901Z,38.22
2022-11-29T03:34:51.764Z,37.83
2022-11-29T03:37:51.935Z,39.70
2022-11-29T03:40:33.364Z,41.97
2022-11-29T03:43:14.231Z,41.30
2022-11-29T03:46:08.734Z,41.35
2022-11-29T03:48:51.631Z,42.28
2022-11-29T03:51:40.119Z,43.25
2022-11-29T03:54:47.554Z,45.20
2022-11-29T03:57:20.680Z,41.47
2022-11-29T03:59:59.722Z,43.95
2022-11-29T04:03:03.865Z,43.13
2022-11-29T04:05:40.426Z,42.58
2022-11-29T04:08:56.868Z,43.65
2022-11-29T04:11:59.140Z,43.45
2022-11-29T04:15:05.893Z,39.70
2022-11-29T04:18:01.074Z,41.47
2022-11-29T04:21:03.549Z,42.97
2022-11-29T04:24:02.532Z,41.08
2022-11-29T04:26:57.715Z,46.72
2022-11-29T04:29:56.816Z,40.97
2022-11-29T04:32:39.793Z,41.80
2022-11-29T04:35:18.883Z,42.30
2022-11-29T04:37:57.876Z,38.83
2022-11-29T04:40:33.955Z,42.33
2022-11-29T04:43:22.154Z,39.00
2022-11-29T04:46:07.458Z,38.80
2022-11-29T04:49:12.283Z,39.08
2022-11-29T04:52:03.417Z,39.42
2022-11-29T04:54:45.810Z,39.58
2022-11-29T04:57:25.025Z,35.60
2022-11-29T05:00:13.409Z,38.13
2022-11-29T05:02:55.891Z,36.40
2022-11-29T05:05:35.072Z,36.58
2022-11-29T05:08:20.934Z,34.33
2022-11-29T05:10:47.866Z,36.80
2022-11-29T05:13:26.780Z,34.55
2022-11-29T05:16:15.731Z,35.33
2022-11-29T05:19:19.407Z,36.03
2022-11-29T05:22:39.199Z,37.80
2022-11-29T05:25:36.697Z,35.50
2022-11-29T05:28:38.192Z,35.97
2022-11-29T05:31:23.871Z,36.00
2022-11-29T05:34:15.718Z,37.00
2022-11-29T05:36:54.359Z,36.63
2022-11-29T05:39:41.589Z,34.30
2022-11-29T05:42:36.925Z,33.88
2022-11-29T05:45:18.731Z,36.20
2022-11-29T05:48:15.003Z,35.85
2022-11-29T05:51:00.755Z,35.70
2022-11-29T05:53:42.614Z,34.20
2022-11-29T05:56:32.122Z,35.63
2022-11-29T05:59:13.871Z,34.40
2022-11-29T06:01:51.529Z,36.47
2022-11-29T06:04:28.800Z,35.50
2022-11-29T06:07:19.152Z,37.50
2022-11-29T06:10:02.222Z,36.80
2022-11-29T06:12:35.815Z,34.67
2022-11-29T06:15:21.386Z,43.05
2022-11-29T06:18:03.458Z,40.92
2022-11-29T06:20:46.544Z,41.42
2022-11-29T06:23:29.220Z,38.92
2022-11-29T06:26:24.183Z,41.55
2022-11-29T06:29:22.210Z,42.15
2022-11-29T06:32:02.511Z,41.95
2022-11-29T06:34:35.818Z,42.17
2022-11-29T06:37:20.089Z,43.22
2022-11-29T06:39:47.579Z,39.67
2022-11-29T06:42:14.608Z,41.42
2022-11-29T06:44:43.049Z,39.55
2022-11-29T06:47:34.825Z,38.72
2022-11-29T06:50:16.430Z,36.15
2022-11-29T06:55:42.216Z,36.63
2022-11-29T06:58:41.499Z,36.20
2022-11-29T07:01:40.875Z,37.50
2022-11-29T07:04:35.135Z,33.75
2022-11-29T07:07:02.441Z,35.78
2022-11-29T07:09:34.401Z,36.17
2022-11-29T07:12:01.653Z,33.72
2022-11-29T07:14:28.920Z,32.50
2022-11-29T07:17:01.915Z,29.65
2022-11-29T07:19:59.409Z,30.58
2022-11-29T07:22:43.321Z,31.63
2022-11-29T07:25:22.445Z,29.27
2022-11-29T07:28:20.246Z,29.63
2022-11-29T07:31:12.271Z,28.73
2022-11-29T07:33:48.172Z,27.42
2022-11-29T07:36:25.570Z,28.73
2022-11-29T07:39:11.399Z,27.33
2022-11-29T07:41:48.399Z,27.90
2022-11-29T07:44:33.529Z,24.73
2022-11-29T07:47:00.662Z,23.60
2022-11-29T07:49:27.765Z,24.58
2022-11-29T07:51:55.590Z,23.52
2022-11-29T07:54:22.978Z,23.95
2022-11-29T07:56:49.947Z,26.88
2022-11-29T07:59:16.989Z,26.38
2022-11-29T08:01:44.120Z,25.35
2022-11-29T08:04:11.173Z,25.77
2022-11-29T08:06:38.332Z,25.02
2022-11-29T08:09:06.878Z,25.52
2022-11-29T08:11:34.058Z,25.08
2022-11-29T08:14:03.080Z,26.13
2022-11-29T08:16:30.262Z,27.38
2022-11-29T08:18:57.369Z,26.80
2022-11-29T08:21:24.542Z,28.17
2022-11-29T08:23:51.733Z,29.00
2022-11-29T08:26:20.301Z,29.45
2022-11-29T08:28:52.231Z,29.30
2022-11-29T08:31:20.587Z,28.42
2022-11-29T08:33:48.169Z,28.75
2022-11-29T08:36:20.071Z,29.85
2022-11-29T08:38:47.976Z,28.77
2022-11-29T08:41:17.094Z,29.23
2022-11-29T08:43:44.706Z,29.67
2022-11-29T08:46:16.927Z,29.50
2022-11-29T08:48:46.744Z,31.42
2022-11-29T08:51:14.261Z,31.25
2022-11-29T08:53:41.376Z,32.58
2022-11-29T08:56:41.856Z,30.63
2022-11-29T08:58:57.705Z,32.97
2022-11-29T09:01:24.831Z,31.27
2022-11-29T09:04:02.521Z,32.78
2022-11-29T09:06:32.201Z,30.05
2022-11-29T09:09:00.298Z,31.83
2022-11-29T09:11:29.940Z,29.42
2022-11-29T09:13:59.856Z,29.17
2022-11-29T09:16:29.180Z,28.30
2022-11-29T09:18:56.508Z,28.40
2022-11-29T09:21:25.824Z,29.83
2022-11-29T09:23:58.805Z,28.98
2022-11-29T09:26:29.296Z,29.35
2022-11-29T09:28:58.605Z,31.70
2022-11-29T09:31:27.273Z,30.45
2022-11-29T09:33:55.229Z,30.30
2022-11-29T09:36:28.121Z,29.95
2022-11-29T09:38:56.625Z,28.95
2022-11-29T09:42:05.154Z,28.17
2022-11-29T09:44:52.941Z,28.58
2022-11-29T09:48:09.149Z,26.45
2022-11-29T09:50:46.526Z,28.45
2022-11-29T09:53:22.747Z,26.80
2022-11-29T09:56:01.700Z,27.40
2022-11-29T09:58:40.535Z,28.92
2022-11-29T10:01:17.531Z,28.25
2022-11-29T10:03:51.885Z,28.55
2022-11-29T10:06:41.186Z,29.00
2022-11-29T10:09:17.130Z,25.95
2022-11-29T10:12:21.355Z,28.08
2022-11-29T10:14:56.537Z,28.90
2022-11-29T10:17:41.982Z,27.65
2022-11-29T10:20:34.295Z,29.70
2022-11-29T10:23:04.856Z,28.88
2022-11-29T10:25:36.132Z,29.48
2022-11-29T10:28:05.049Z,30.38
2022-11-29T10:30:35.383Z,30.08
2022-11-29T10:33:02.916Z,28.05
2022-11-29T10:35:30.605Z,27.48
2022-11-29T10:38:29.550Z,27.83
2022-11-29T10:40:53.125Z,28.42
2022-11-29T10:43:20.760Z,31.77
2022-11-29T10:45:53.507Z,33.20
2022-11-29T10:48:31.776Z,29.60
2022-11-29T10:50:59.595Z,30.67
2022-11-29T10:53:31.466Z,30.83
2022-11-29T10:56:23.349Z,31.33
2022-11-29T10:59:03.460Z,31.48
2022-11-29T11:01:33.657Z,33.88
2022-11-29T11:04:04.320Z,27.33
2022-11-29T11:06:57.854Z,27.52
2022-11-29T11:09:34.561Z,28.40
2022-11-29T11:12:17.003Z,28.33
2022-11-29T11:14:45.241Z,28.00
2022-11-29T11:17:30.215Z,27.73
2022-11-29T11:20:01.561Z,28.40
2022-11-29T11:22:29.699Z,28.83
2022-11-29T11:25:24.352Z,27.60
2022-11-29T11:27:51.530Z,29.88
2022-11-29T11:30:25.232Z,29.73
2022-11-29T11:33:31.332Z,30.40
2022-11-29T11:36:19.600Z,28.77
2022-11-29T11:38:52.833Z,29.90
2022-11-29T11:41:54.307Z,29.40
2022-11-29T11:44:46.406Z,28.05
2022-11-29T11:47:20.567Z,30.95
2022-11-29T11:49:53.561Z,30.50
2022-11-29T11:52:28.695Z,31.15
2022-11-29T11:54:59.291Z,30.08
2022-11-29T11:57:26.931Z,29.03
2022-11-29T11:59:59.596Z,31.70
2022-11-29T12:02:44.336Z,28.63
2022-11-29T12:05:18.550Z,29.38
2022-11-29T12:08:13.655Z,27.38
2022-11-29T12:10:41.446Z,30.30
2022-11-29T12:13:18.251Z,28.42
2022-11-29T12:15:49.856Z,29.17
2022-11-29T12:18:24.868Z,29.90
2022-11-29T12:21:00.047Z,27.55
2022-11-29T12:23:52.764Z,30.17
2022-11-29T12:26:56.578Z,31.73
2022-11-29T12:29:22.432Z,27.77
2022-11-29T12:32:15.490Z,30.08
2022-11-29T12:34:51.444Z,28.48
2022-11-29T12:37:18.481Z,32.92
2022-11-29T12:40:04.063Z,27.65
2022-11-29T12:43:02.293Z,27.77
2022-11-29T12:45:32.450Z,31.25
2022-11-29T12:47:59.386Z,29.92
2022-11-29T12:50:52.435Z,30.45
2022-11-29T12:53:38.249Z,30.38
2022-11-29T12:56:24.106Z,31.10
2022-11-29T12:59:06.802Z,31.85
2022-11-29T13:01:57.506Z,30.33
2022-11-29T13:04:38.618Z,35.73
2022-11-29T13:07:11.560Z,29.30
2022-11-29T13:09:38.903Z,28.85
2022-11-29T13:12:17.848Z,29.63
2022-11-29T13:15:03.199Z,29.45
2022-11-29T13:17:51.842Z,32.05
2022-11-29T13:20:33.631Z,29.20
2022-11-29T13:23:39.188Z,30.02
2022-11-29T13:26:12.348Z,30.30
2022-11-29T13:28:42.138Z,28.30
2022-11-29T13:31:16.642Z,30.77
2022-11-29T13:34:06.110Z,30.95
2022-11-29T13:37:00.235Z,27.35
2022-11-29T13:39:50.813Z,29.05
2022-11-29T13:42:36.535Z,30.83
2022-11-29T13:45:22.129Z,29.63
2022-11-29T13:47:54.917Z,28.50
2022-11-29T13:50:41.035Z,28.17
2022-11-29T13:53:22.880Z,28.15
2022-11-29T13:56:01.467Z,28.75
2022-11-29T13:58:28.456Z,28.42
2022-11-29T14:01:18.206Z,27.38
2022-11-29T14:04:01.744Z,25.02
2022-11-29T14:06:34.815Z,26.83
2022-11-29T14:09:19.596Z,27.30
2022-11-29T14:11:50.214Z,28.55
2022-11-29T14:14:17.194Z,26.48
2022-11-29T14:16:44.125Z,26.27
2022-11-29T14:19:27.764Z,24.48
2022-11-29T14:22:07.414Z,24.48
2022-11-29T14:24:37.199Z,29.50
2022-11-29T14:27:07.735Z,24.75
2022-11-29T14:29:55.511Z,24.33
2022-11-29T14:33:00.878Z,29.30
2022-11-29T14:35:30.947Z,24.40
2022-11-29T14:38:29.259Z,23.85
2022-11-29T14:41:14.586Z,22.77
2022-11-29T14:43:41.866Z,25.50
2022-11-29T14:46:14.944Z,25.00
2022-11-29T14:48:58.580Z,24.98
2022-11-29T14:51:29.329Z,25.38
2022-11-29T14:54:15.875Z,26.00
2022-11-29T14:56:45.114Z,27.65
2022-11-29T14:59:49.786Z,25.88
2022-11-29T15:02:41.378Z,25.30
2022-11-29T15:05:37.651Z,23.48
2022-11-29T15:08:13.787Z,23.60
2022-11-29T15:10:47.802Z,22.17
2022-11-29T15:13:38.364Z,22.55
2022-11-29T15:16:22.798Z,24.63
2022-11-29T15:18:52.589Z,23.98
2022-11-29T15:21:50.896Z,23.10
2022-11-29T15:24:19.095Z,23.80
2022-11-29T15:27:01.478Z,22.15
2022-11-29T15:29:30.493Z,23.60
2022-11-29T15:32:05.470Z,23.83
2022-11-29T15:34:35.033Z,23.55
2022-11-29T15:37:02.028Z,24.38
2022-11-29T15:39:38.176Z,23.15
2022-11-29T15:42:12.363Z,22.63
2022-11-29T15:44:46.452Z,27.13
2022-11-29T15:47:25.250Z,25.48
2022-11-29T15:49:54.238Z,26.80
2022-11-29T15:52:31.745Z,26.20
2022-11-29T15:55:05.658Z,25.25
2022-11-29T15:57:42.818Z,24.17
2022-11-29T16:00:20.036Z,25.30
2022-11-29T16:02:52.745Z,24.98
2022-11-29T16:05:23.224Z,23.77
2022-11-29T16:07:55.129Z,23.23
2022-11-29T16:10:31.955Z,25.67
2022-11-29T16:13:25.927Z,25.20
2022-11-29T16:16:19.213Z,22.13
2022-11-29T16:18:48.063Z,24.42
2022-11-29T16:21:29.448Z,23.33
2022-11-29T16:23:58.411Z,23.67
2022-11-29T16:26:38.462Z,24.55
2022-11-29T16:29:06.281Z,25.70
2022-11-29T16:31:38.353Z,26.55
2022-11-29T16:34:31.433Z,27.50
2022-11-29T16:37:08.912Z,25.67
2022-11-29T16:39:38.571Z,25.98
2022-11-29T16:42:23.387Z,31.77
2022-11-29T16:45:06.612Z,33.05
2022-11-29T16:47:53.302Z,31.23
2022-11-29T16:50:22.734Z,31.10
2022-11-29T16:52:56.161Z,28.52
2022-11-29T16:55:24.542Z,24.90
2022-11-29T16:57:52.442Z,30.92
2022-11-29T17:00:33.681Z,33.10
2022-11-29T17:03:00.923Z,27.15
2022-11-29T17:05:30.229Z,28.40
2022-11-29T17:07:57.456Z,27.42
2022-11-29T17:10:25.661Z,27.45
2022-11-29T17:12:53.029Z,33.83
2022-11-29T17:15:20.239Z,36.92
2022-11-29T17:17:49.065Z,31.77
2022-11-29T17:20:16.248Z,28.98
2022-11-29T17:22:43.472Z,29.13
2022-11-29T17:25:11.505Z,29.00
2022-11-29T17:27:39.017Z,26.17
2022-11-29T17:30:08.099Z,25.90
2022-11-29T17:32:35.960Z,26.63
2022-11-29T17:35:06.598Z,24.40
2022-11-29T17:37:34.092Z,25.08
2022-11-29T17:40:01.655Z,26.13
2022-11-29T17:42:29.374Z,25.35
2022-11-29T17:44:57.087Z,23.95
2022-11-29T17:47:24.667Z,23.58
2022-11-29T17:49:52.343Z,25.42
2022-11-29T17:52:20.092Z,25.80
2022-11-29T17:54:47.594Z,24.95
2022-11-29T17:57:14.966Z,22.77
2022-11-29T17:59:46.797Z,23.30
2022-11-29T18:02:16.187Z,23.63
2022-11-29T18:04:47.070Z,23.70
2022-11-29T18:07:17.314Z,24.20
2022-11-29T18:09:46.998Z,23.67
2022-11-29T18:12:15.406Z,24.92
2022-11-29T18:14:44.410Z,25.00
2022-11-29T18:17:13.773Z,22.63
2022-11-29T18:19:42.716Z,24.85
2022-11-29T18:22:10.661Z,24.17
2022-11-29T18:24:38.446Z,23.70
2022-11-29T18:27:06.506Z,22.65
2022-11-29T18:29:38.927Z,24.15
2022-11-29T18:32:07.305Z,25.27
2022-11-29T18:34:35.202Z,24.38
2022-11-29T18:37:04.303Z,23.50
2022-11-29T18:39:31.977Z,24.95
2022-11-29T18:41:59.864Z,24.05
2022-11-29T18:44:29.653Z,24.20
2022-11-29T18:46:57.982Z,22.98
2022-11-29T18:49:25.954Z,26.67
2022-11-29T18:51:54.267Z,25.20
2022-11-29T18:54:22.344Z,25.30
2022-11-29T18:56:51.886Z,23.38
2022-11-29T18:59:19.687Z,26.73
2022-11-29T19:01:49.171Z,26.58
2022-11-29T19:04:20.376Z,26.63
2022-11-29T19:09:19.376Z,25.50
2022-11-29T19:11:50.214Z,23.90
2022-11-29T19:14:20.339Z,22.85
2022-11-29T19:16:49.987Z,25.30
2022-11-29T19:19:19.976Z,23.10
2022-11-29T19:21:49.366Z,24.38
2022-11-29T19:24:18.438Z,22.38
2022-11-29T19:29:17.116Z,23.52
2022-11-29T19:31:45.458Z,24.45
2022-11-29T19:34:14.872Z,24.23
2022-11-29T19:36:45.457Z,23.70
2022-11-29T19:39:17.843Z,25.85
2022-11-29T19:41:47.642Z,23.67
2022-11-29T19:44:15.587Z,21.02
2022-11-29T19:46:46.542Z,25.33
2022-11-29T19:49:15.076Z,23.73
2022-11-29T19:51:43.420Z,24.27
2022-11-29T19:54:12.459Z,25.02
2022-11-29T19:56:42.288Z,23.33
2022-11-29T19:59:10.433Z,26.25
2022-11-29T20:01:41.904Z,24.35
2022-11-29T20:04:14.141Z,26.30
2022-11-29T20:06:42.515Z,24.77
2022-11-29T20:09:14.560Z,24.00
2022-11-29T20:11:44.518Z,24.73
2022-11-29T20:14:16.603Z,22.30
2022-11-29T20:16:45.341Z,22.77
2022-11-29T20:19:16.060Z,23.80
2022-11-29T20:21:46.925Z,22.52
2022-11-29T20:24:16.478Z,22.33
2022-11-29T20:26:47.187Z,22.02
2022-11-29T20:29:17.315Z,22.27
2022-11-29T20:31:50.650Z,22.75
2022-11-29T20:34:20.028Z,22.13
2022-11-29T20:37:05.836Z,22.05
2022-11-29T20:40:04.797Z,19.95
2022-11-29T20:42:38.803Z,22.63
2022-11-29T20:45:09.220Z,21.33
2022-11-29T20:47:56.768Z,21.40
2022-11-29T20:50:29.479Z,20.00
2022-11-29T20:55:43.670Z,19.33
2022-11-29T20:58:16.142Z,21.00
2022-11-29T21:00:44.778Z,20.10
2022-11-29T21:03:18.066Z,18.65
2022-11-29T21:05:46.662Z,19.90
2022-11-29T21:08:16.657Z,18.48
2022-11-29T21:10:44.463Z,20.10
2022-11-29T21:13:13.875Z,19.08
2022-11-29T21:15:42.412Z,19.85
2022-11-29T21:18:21.073Z,18.45
2022-11-29T21:20:54.973Z,18.50
2022-11-29T21:23:27.657Z,19.42
2022-11-29T21:26:10.049Z,17.75
2022-11-29T21:28:45.000Z,19.13
2022-11-29T21:31:18.042Z,18.77
2022-11-29T21:33:45.723Z,19.90
2022-11-29T21:36:13.731Z,19.15
2022-11-29T21:38:41.171Z,20.02
2022-11-29T21:41:08.540Z,20.27
2022-11-29T21:44:04.984Z,19.55
2022-11-29T21:46:22.843Z,19.48
2022-11-29T21:48:51.625Z,18.33
2022-11-29T21:51:19.160Z,18.35
2022-11-29T21:53:46.243Z,17.52
2022-11-29T21:56:13.376Z,17.70
2022-11-29T21:58:40.833Z,19.02
2022-11-29T22:01:13.474Z,20.38
2022-11-29T22:03:41.820Z,18.33
2022-11-29T22:06:11.886Z,20.88
2022-11-29T22:08:40.413Z,19.80
2022-11-29T22:11:10.035Z,19.35
2022-11-29T22:13:58.296Z,19.35
2022-11-29T22:16:26.005Z,19.45
2022-11-29T22:18:53.317Z,19.27
2022-11-29T22:21:20.687Z,19.65
2022-11-29T22:23:47.656Z,19.02
2022-11-29T22:26:14.669Z,18.05
2022-11-29T22:28:41.751Z,19.65
2022-11-29T22:31:11.472Z,18.77
2022-11-29T22:33:39.932Z,18.92
2022-11-29T22:36:10.200Z,18.38
2022-11-29T22:38:38.109Z,19.10
2022-11-29T22:41:10.647Z,18.25
2022-11-29T22:43:38.575Z,20.50
2022-11-29T22:46:07.520Z,20.85
2022-11-29T22:48:38.701Z,21.08
2022-11-29T22:51:11.942Z,20.17
2022-11-29T22:53:40.983Z,20.02
2022-11-29T22:56:10.440Z,20.63
2022-11-29T22:58:37.936Z,20.45
2022-11-29T23:01:09.592Z,20.70
2022-11-29T23:03:44.741Z,19.48
2022-11-29T23:06:17.585Z,20.98
2022-11-29T23:08:47.171Z,20.63
2022-11-29T23:11:17.253Z,22.20
2022-11-29T23:13:45.283Z,21.92
2022-11-29T23:16:14.804Z,22.67
2022-11-29T23:18:42.558Z,22.48
2022-11-29T23:21:14.943Z,20.10
2022-11-29T23:23:42.747Z,21.33
2022-11-29T23:26:40.330Z,21.80
2022-11-29T23:29:11.122Z,20.17
2022-11-29T23:31:38.968Z,21.73
2022-11-29T23:34:06.095Z,19.65
2022-11-29T23:36:33.499Z,19.55
2022-11-29T23:39:00.957Z,19.95
2022-11-29T23:41:28.002Z,19.80
2022-11-29T23:43:55.228Z,22.45
2022-11-29T23:46:24.383Z,22.17
2022-11-29T23:48:52.267Z,21.80
2022-11-29T23:51:19.978Z,21.90
2022-11-29T23:53:51.916Z,20.92
2022-11-29T23:56:20.620Z,21.58
2022-11-29T23:58:47.803Z,20.15
